sensor_id;sensor_type;location;lat;lon;timestamp;temperature;humidity
13458;DHT22;6801;53.018;11.560;2023-07-28T00:02:06;17.90;78.90
13458;DHT22;6801;53.018;11.560;2023-07-28T00:04:35;18.00;79.10
13458;DHT22;6801;53.018;11.560;2023-07-28T00:07:03;18.00;79.10
13458;DHT22;6801;53.018;11.560;2023-07-28T00:09:30;17.90;78.80
13458;DHT22;6801;53.018;11.560;2023-07-28T00:11:57;18.00;78.70
13458;DHT22;6801;53.018;11.560;2023-07-28T00:14:24;17.90;78.70
13458;DHT22;6801;53.018;11.560;2023-07-28T00:16:52;18.00;78.80
13458;DHT22;6801;53.018;11.560;2023-07-28T00:19:19;18.00;79.00
13458;DHT22;6801;53.018;11.560;2023-07-28T00:21:48;17.90;79.00
13458;DHT22;6801;53.018;11.560;2023-07-28T00:24:17;18.00;79.00
13458;DHT22;6801;53.018;11.560;2023-07-28T00:26:45;18.00;79.20
13458;DHT22;6801;53.018;11.560;2023-07-28T00:29:12;18.00;79.20
13458;DHT22;6801;53.018;11.560;2023-07-28T00:31:39;18.00;79.20
13458;DHT22;6801;53.018;11.560;2023-07-28T00:34:07;18.00;79.00
13458;DHT22;6801;53.018;11.560;2023-07-28T00:36:34;18.00;79.00
13458;DHT22;6801;53.018;11.560;2023-07-28T00:39:03;18.00;79.00
13458;DHT22;6801;53.018;11.560;2023-07-28T00:41:30;18.00;79.10
13458;DHT22;6801;53.018;11.560;2023-07-28T00:43:57;18.00;79.10
13458;DHT22;6801;53.018;11.560;2023-07-28T00:46:24;18.00;79.10
13458;DHT22;6801;53.018;11.560;2023-07-28T00:48:51;18.00;79.10
13458;DHT22;6801;53.018;11.560;2023-07-28T00:51:19;18.00;79.10
13458;DHT22;6801;53.018;11.560;2023-07-28T00:53:46;18.00;79.30
13458;DHT22;6801;53.018;11.560;2023-07-28T00:56:14;18.00;79.50
13458;DHT22;6801;53.018;11.560;2023-07-28T00:58:42;18.00;79.50
13458;DHT22;6801;53.018;11.560;2023-07-28T01:01:09;18.00;79.30
13458;DHT22;6801;53.018;11.560;2023-07-28T01:03:37;18.00;79.50
13458;DHT22;6801;53.018;11.560;2023-07-28T01:06:13;18.00;79.70
13458;DHT22;6801;53.018;11.560;2023-07-28T01:08:47;18.10;79.50
13458;DHT22;6801;53.018;11.560;2023-07-28T01:11:17;18.00;79.40
13458;DHT22;6801;53.018;11.560;2023-07-28T01:13:45;18.00;79.40
13458;DHT22;6801;53.018;11.560;2023-07-28T01:16:12;18.00;79.30
13458;DHT22;6801;53.018;11.560;2023-07-28T01:18:39;18.00;79.30
13458;DHT22;6801;53.018;11.560;2023-07-28T01:21:11;18.00;79.20
13458;DHT22;6801;53.018;11.560;2023-07-28T01:23:44;18.00;79.20
13458;DHT22;6801;53.018;11.560;2023-07-28T01:26:26;18.00;79.40
13458;DHT22;6801;53.018;11.560;2023-07-28T01:28:53;18.00;79.30
13458;DHT22;6801;53.018;11.560;2023-07-28T01:31:20;18.00;79.30
13458;DHT22;6801;53.018;11.560;2023-07-28T01:33:47;18.00;79.30
13458;DHT22;6801;53.018;11.560;2023-07-28T01:36:14;18.00;79.50
13458;DHT22;6801;53.018;11.560;2023-07-28T01:38:41;18.00;79.40
13458;DHT22;6801;53.018;11.560;2023-07-28T01:41:08;18.00;79.50
13458;DHT22;6801;53.018;11.560;2023-07-28T01:43:37;18.10;79.70
13458;DHT22;6801;53.018;11.560;2023-07-28T01:46:04;18.10;79.90
13458;DHT22;6801;53.018;11.560;2023-07-28T01:48:31;18.10;79.70
13458;DHT22;6801;53.018;11.560;2023-07-28T01:50:58;18.10;79.80
13458;DHT22;6801;53.018;11.560;2023-07-28T01:53:26;18.10;79.80
13458;DHT22;6801;53.018;11.560;2023-07-28T01:55:53;18.10;79.90
13458;DHT22;6801;53.018;11.560;2023-07-28T01:58:20;18.10;79.90
13458;DHT22;6801;53.018;11.560;2023-07-28T02:00:48;18.10;79.90
13458;DHT22;6801;53.018;11.560;2023-07-28T02:03:15;18.10;80.10
13458;DHT22;6801;53.018;11.560;2023-07-28T02:05:42;18.10;80.00
13458;DHT22;6801;53.018;11.560;2023-07-28T02:08:10;18.10;79.90
13458;DHT22;6801;53.018;11.560;2023-07-28T02:10:37;18.10;80.00
13458;DHT22;6801;53.018;11.560;2023-07-28T02:13:04;18.20;80.00
13458;DHT22;6801;53.018;11.560;2023-07-28T02:15:31;18.20;80.10
13458;DHT22;6801;53.018;11.560;2023-07-28T02:17:59;18.20;80.10
13458;DHT22;6801;53.018;11.560;2023-07-28T02:20:26;18.20;80.20
13458;DHT22;6801;53.018;11.560;2023-07-28T02:22:53;18.20;80.00
13458;DHT22;6801;53.018;11.560;2023-07-28T02:25:22;18.20;80.10
13458;DHT22;6801;53.018;11.560;2023-07-28T02:27:49;18.20;80.20
13458;DHT22;6801;53.018;11.560;2023-07-28T02:30:16;18.20;80.20
13458;DHT22;6801;53.018;11.560;2023-07-28T02:32:43;18.20;80.10
13458;DHT22;6801;53.018;11.560;2023-07-28T02:35:12;18.20;80.20
13458;DHT22;6801;53.018;11.560;2023-07-28T02:37:39;18.20;80.30
13458;DHT22;6801;53.018;11.560;2023-07-28T02:40:08;18.20;80.20
13458;DHT22;6801;53.018;11.560;2023-07-28T02:42:35;18.20;80.40
13458;DHT22;6801;53.018;11.560;2023-07-28T02:45:02;18.20;80.40
13458;DHT22;6801;53.018;11.560;2023-07-28T02:47:29;18.20;80.30
13458;DHT22;6801;53.018;11.560;2023-07-28T02:49:56;18.20;80.30
13458;DHT22;6801;53.018;11.560;2023-07-28T02:52:25;18.30;80.40
13458;DHT22;6801;53.018;11.560;2023-07-28T02:54:52;18.20;80.40
13458;DHT22;6801;53.018;11.560;2023-07-28T02:57:19;18.30;80.60
13458;DHT22;6801;53.018;11.560;2023-07-28T02:59:47;18.30;80.70
13458;DHT22;6801;53.018;11.560;2023-07-28T03:02:15;18.30;80.90
13458;DHT22;6801;53.018;11.560;2023-07-28T03:04:42;18.30;80.90
13458;DHT22;6801;53.018;11.560;2023-07-28T03:07:29;18.30;81.00
13458;DHT22;6801;53.018;11.560;2023-07-28T03:10:01;18.30;81.10
13458;DHT22;6801;53.018;11.560;2023-07-28T03:12:29;18.40;81.10
13458;DHT22;6801;53.018;11.560;2023-07-28T03:14:56;18.30;81.00
13458;DHT22;6801;53.018;11.560;2023-07-28T03:17:23;18.40;81.00
13458;DHT22;6801;53.018;11.560;2023-07-28T03:19:50;18.40;81.20
13458;DHT22;6801;53.018;11.560;2023-07-28T03:22:17;18.40;81.10
13458;DHT22;6801;53.018;11.560;2023-07-28T03:24:46;18.30;81.20
13458;DHT22;6801;53.018;11.560;2023-07-28T03:27:13;18.30;81.40
13458;DHT22;6801;53.018;11.560;2023-07-28T03:29:40;18.40;81.40
13458;DHT22;6801;53.018;11.560;2023-07-28T03:32:07;18.40;81.60
13458;DHT22;6801;53.018;11.560;2023-07-28T03:34:34;18.40;81.50
13458;DHT22;6801;53.018;11.560;2023-07-28T03:37:04;18.40;81.40
13458;DHT22;6801;53.018;11.560;2023-07-28T03:39:31;18.40;81.30
13458;DHT22;6801;53.018;11.560;2023-07-28T03:42:00;18.40;81.10
13458;DHT22;6801;53.018;11.560;2023-07-28T03:44:28;18.50;81.40
13458;DHT22;6801;53.018;11.560;2023-07-28T03:46:55;18.50;81.50
13458;DHT22;6801;53.018;11.560;2023-07-28T03:49:22;18.50;81.60
13458;DHT22;6801;53.018;11.560;2023-07-28T03:51:49;18.50;81.70
13458;DHT22;6801;53.018;11.560;2023-07-28T03:54:16;18.50;81.60
13458;DHT22;6801;53.018;11.560;2023-07-28T03:56:43;18.50;81.60
13458;DHT22;6801;53.018;11.560;2023-07-28T03:59:12;18.50;81.70
13458;DHT22;6801;53.018;11.560;2023-07-28T04:01:39;18.50;81.70
13458;DHT22;6801;53.018;11.560;2023-07-28T04:04:06;18.50;81.90
13458;DHT22;6801;53.018;11.560;2023-07-28T04:06:41;18.50;81.90
13458;DHT22;6801;53.018;11.560;2023-07-28T04:09:09;18.50;82.00
13458;DHT22;6801;53.018;11.560;2023-07-28T04:11:36;18.50;82.00
13458;DHT22;6801;53.018;11.560;2023-07-28T04:14:03;18.50;81.90
13458;DHT22;6801;53.018;11.560;2023-07-28T04:16:32;18.50;81.90
13458;DHT22;6801;53.018;11.560;2023-07-28T04:18:59;18.50;81.90
13458;DHT22;6801;53.018;11.560;2023-07-28T04:21:26;18.50;81.90
13458;DHT22;6801;53.018;11.560;2023-07-28T04:23:53;18.50;82.00
13458;DHT22;6801;53.018;11.560;2023-07-28T04:26:21;18.50;82.00
13458;DHT22;6801;53.018;11.560;2023-07-28T04:28:54;18.50;81.90
13458;DHT22;6801;53.018;11.560;2023-07-28T04:31:21;18.50;81.90
13458;DHT22;6801;53.018;11.560;2023-07-28T04:33:55;18.50;82.00
13458;DHT22;6801;53.018;11.560;2023-07-28T04:36:24;18.50;82.00
13458;DHT22;6801;53.018;11.560;2023-07-28T04:38:51;18.50;81.90
13458;DHT22;6801;53.018;11.560;2023-07-28T04:41:18;18.50;82.00
13458;DHT22;6801;53.018;11.560;2023-07-28T04:43:50;18.50;82.00
13458;DHT22;6801;53.018;11.560;2023-07-28T04:46:18;18.50;81.90
13458;DHT22;6801;53.018;11.560;2023-07-28T04:48:51;18.50;82.10
13458;DHT22;6801;53.018;11.560;2023-07-28T04:51:58;18.50;82.10
13458;DHT22;6801;53.018;11.560;2023-07-28T04:54:27;18.50;82.00
13458;DHT22;6801;53.018;11.560;2023-07-28T04:56:55;18.50;82.10
13458;DHT22;6801;53.018;11.560;2023-07-28T04:59:28;18.60;82.20
13458;DHT22;6801;53.018;11.560;2023-07-28T05:01:55;18.60;82.20
13458;DHT22;6801;53.018;11.560;2023-07-28T05:04:22;18.60;82.10
13458;DHT22;6801;53.018;11.560;2023-07-28T05:06:49;18.60;82.10
13458;DHT22;6801;53.018;11.560;2023-07-28T05:09:18;18.60;82.10
13458;DHT22;6801;53.018;11.560;2023-07-28T05:11:45;18.60;82.10
13458;DHT22;6801;53.018;11.560;2023-07-28T05:14:12;18.60;82.10
13458;DHT22;6801;53.018;11.560;2023-07-28T05:16:39;18.60;82.10
13458;DHT22;6801;53.018;11.560;2023-07-28T05:19:09;18.60;82.00
13458;DHT22;6801;53.018;11.560;2023-07-28T05:21:55;18.60;82.00
13458;DHT22;6801;53.018;11.560;2023-07-28T05:24:35;18.60;81.90
13458;DHT22;6801;53.018;11.560;2023-07-28T05:27:02;18.60;81.90
13458;DHT22;6801;53.018;11.560;2023-07-28T05:29:30;18.60;82.00
13458;DHT22;6801;53.018;11.560;2023-07-28T05:32:02;18.60;82.10
13458;DHT22;6801;53.018;11.560;2023-07-28T05:34:42;18.60;82.10
13458;DHT22;6801;53.018;11.560;2023-07-28T05:37:09;18.60;82.10
13458;DHT22;6801;53.018;11.560;2023-07-28T05:39:38;18.70;82.10
13458;DHT22;6801;53.018;11.560;2023-07-28T05:42:06;18.70;82.00
13458;DHT22;6801;53.018;11.560;2023-07-28T05:44:34;18.70;82.10
13458;DHT22;6801;53.018;11.560;2023-07-28T05:47:01;18.70;82.10
13458;DHT22;6801;53.018;11.560;2023-07-28T05:49:28;18.70;82.00
13458;DHT22;6801;53.018;11.560;2023-07-28T05:51:56;18.70;82.00
13458;DHT22;6801;53.018;11.560;2023-07-28T05:54:23;18.70;82.00
13458;DHT22;6801;53.018;11.560;2023-07-28T05:56:51;18.70;81.90
13458;DHT22;6801;53.018;11.560;2023-07-28T05:59:18;18.80;81.90
13458;DHT22;6801;53.018;11.560;2023-07-28T06:01:45;18.80;81.90
13458;DHT22;6801;53.018;11.560;2023-07-28T06:04:15;18.80;81.90
13458;DHT22;6801;53.018;11.560;2023-07-28T06:06:47;18.80;81.80
13458;DHT22;6801;53.018;11.560;2023-07-28T06:09:15;18.80;81.80
13458;DHT22;6801;53.018;11.560;2023-07-28T06:11:43;18.90;81.70
13458;DHT22;6801;53.018;11.560;2023-07-28T06:14:12;18.90;81.70
13458;DHT22;6801;53.018;11.560;2023-07-28T06:16:39;18.90;81.80
13458;DHT22;6801;53.018;11.560;2023-07-28T06:19:06;18.90;81.80
13458;DHT22;6801;53.018;11.560;2023-07-28T06:21:36;18.90;82.00
13458;DHT22;6801;53.018;11.560;2023-07-28T06:24:03;18.90;81.90
13458;DHT22;6801;53.018;11.560;2023-07-28T06:26:30;19.00;82.00
13458;DHT22;6801;53.018;11.560;2023-07-28T06:28:57;19.00;81.90
13458;DHT22;6801;53.018;11.560;2023-07-28T06:31:26;19.00;81.90
13458;DHT22;6801;53.018;11.560;2023-07-28T06:33:53;19.00;82.10
13458;DHT22;6801;53.018;11.560;2023-07-28T06:36:20;19.00;82.00
13458;DHT22;6801;53.018;11.560;2023-07-28T06:38:47;19.00;81.90
13458;DHT22;6801;53.018;11.560;2023-07-28T06:41:15;19.10;81.80
13458;DHT22;6801;53.018;11.560;2023-07-28T06:43:45;19.10;81.70
13458;DHT22;6801;53.018;11.560;2023-07-28T06:46:12;19.10;81.60
13458;DHT22;6801;53.018;11.560;2023-07-28T06:48:40;19.10;81.80
13458;DHT22;6801;53.018;11.560;2023-07-28T06:51:08;19.10;81.70
13458;DHT22;6801;53.018;11.560;2023-07-28T06:53:35;19.20;81.90
13458;DHT22;6801;53.018;11.560;2023-07-28T06:56:02;19.20;82.10
13458;DHT22;6801;53.018;11.560;2023-07-28T06:58:29;19.30;82.10
13458;DHT22;6801;53.018;11.560;2023-07-28T07:00:57;19.30;82.20
13458;DHT22;6801;53.018;11.560;2023-07-28T07:03:24;19.40;82.10
13458;DHT22;6801;53.018;11.560;2023-07-28T07:05:52;19.40;82.10
13458;DHT22;6801;53.018;11.560;2023-07-28T07:08:20;19.40;82.00
13458;DHT22;6801;53.018;11.560;2023-07-28T07:10:47;19.40;81.90
13458;DHT22;6801;53.018;11.560;2023-07-28T07:13:16;19.40;82.00
13458;DHT22;6801;53.018;11.560;2023-07-28T07:15:43;19.50;81.90
13458;DHT22;6801;53.018;11.560;2023-07-28T07:18:11;19.50;81.80
13458;DHT22;6801;53.018;11.560;2023-07-28T07:20:38;19.50;81.70
13458;DHT22;6801;53.018;11.560;2023-07-28T07:23:06;19.50;81.60
13458;DHT22;6801;53.018;11.560;2023-07-28T07:25:34;19.60;81.50
13458;DHT22;6801;53.018;11.560;2023-07-28T07:28:04;19.60;80.70
13458;DHT22;6801;53.018;11.560;2023-07-28T07:30:32;19.60;80.30
13458;DHT22;6801;53.018;11.560;2023-07-28T07:33:00;19.60;80.40
13458;DHT22;6801;53.018;11.560;2023-07-28T07:35:28;19.60;80.10
13458;DHT22;6801;53.018;11.560;2023-07-28T07:37:55;19.60;80.30
13458;DHT22;6801;53.018;11.560;2023-07-28T07:40:24;19.50;80.30
13458;DHT22;6801;53.018;11.560;2023-07-28T07:42:51;19.50;80.20
13458;DHT22;6801;53.018;11.560;2023-07-28T07:45:19;19.50;80.60
13458;DHT22;6801;53.018;11.560;2023-07-28T07:47:46;19.50;80.80
13458;DHT22;6801;53.018;11.560;2023-07-28T07:50:14;19.50;80.50
13458;DHT22;6801;53.018;11.560;2023-07-28T07:52:41;19.50;80.50
13458;DHT22;6801;53.018;11.560;2023-07-28T07:55:09;19.50;80.30
13458;DHT22;6801;53.018;11.560;2023-07-28T07:57:38;19.50;80.50
13458;DHT22;6801;53.018;11.560;2023-07-28T08:00:06;19.50;80.40
13458;DHT22;6801;53.018;11.560;2023-07-28T08:02:44;19.50;80.70
13458;DHT22;6801;53.018;11.560;2023-07-28T08:05:14;19.50;80.60
13458;DHT22;6801;53.018;11.560;2023-07-28T08:07:41;19.50;80.40
13458;DHT22;6801;53.018;11.560;2023-07-28T08:10:10;19.50;80.40
13458;DHT22;6801;53.018;11.560;2023-07-28T08:12:38;19.50;80.00
13458;DHT22;6801;53.018;11.560;2023-07-28T08:15:08;19.50;80.00
13458;DHT22;6801;53.018;11.560;2023-07-28T08:17:35;19.60;80.30
13458;DHT22;6801;53.018;11.560;2023-07-28T08:20:02;19.60;80.10
13458;DHT22;6801;53.018;11.560;2023-07-28T08:22:30;19.60;80.00
13458;DHT22;6801;53.018;11.560;2023-07-28T08:24:57;19.60;80.10
13458;DHT22;6801;53.018;11.560;2023-07-28T08:27:25;19.60;80.20
13458;DHT22;6801;53.018;11.560;2023-07-28T08:29:53;19.70;80.30
13458;DHT22;6801;53.018;11.560;2023-07-28T08:32:20;19.70;80.30
13458;DHT22;6801;53.018;11.560;2023-07-28T08:34:47;19.70;80.30
13458;DHT22;6801;53.018;11.560;2023-07-28T08:37:14;19.80;80.50
13458;DHT22;6801;53.018;11.560;2023-07-28T08:39:41;19.90;80.70
13458;DHT22;6801;53.018;11.560;2023-07-28T08:42:08;19.90;80.80
13458;DHT22;6801;53.018;11.560;2023-07-28T08:44:35;20.00;80.50
13458;DHT22;6801;53.018;11.560;2023-07-28T08:47:05;20.00;80.30
13458;DHT22;6801;53.018;11.560;2023-07-28T08:49:32;20.00;80.10
13458;DHT22;6801;53.018;11.560;2023-07-28T08:52:02;20.00;80.10
13458;DHT22;6801;53.018;11.560;2023-07-28T08:54:30;20.00;80.10
13458;DHT22;6801;53.018;11.560;2023-07-28T08:56:57;20.10;80.20
13458;DHT22;6801;53.018;11.560;2023-07-28T08:59:25;20.10;80.20
13458;DHT22;6801;53.018;11.560;2023-07-28T09:01:53;20.10;80.30
13458;DHT22;6801;53.018;11.560;2023-07-28T09:04:22;20.20;80.50
13458;DHT22;6801;53.018;11.560;2023-07-28T09:06:50;20.20;80.80
13458;DHT22;6801;53.018;11.560;2023-07-28T09:09:20;20.20;80.80
13458;DHT22;6801;53.018;11.560;2023-07-28T09:11:49;20.30;80.70
13458;DHT22;6801;53.018;11.560;2023-07-28T09:14:17;20.40;80.70
13458;DHT22;6801;53.018;11.560;2023-07-28T09:16:45;20.50;80.60
13458;DHT22;6801;53.018;11.560;2023-07-28T09:19:12;20.50;80.60
13458;DHT22;6801;53.018;11.560;2023-07-28T09:21:43;20.60;80.70
13458;DHT22;6801;53.018;11.560;2023-07-28T09:24:12;20.70;80.70
13458;DHT22;6801;53.018;11.560;2023-07-28T09:26:40;20.70;80.90
13458;DHT22;6801;53.018;11.560;2023-07-28T09:29:13;20.90;80.90
13458;DHT22;6801;53.018;11.560;2023-07-28T09:31:40;20.90;81.00
13458;DHT22;6801;53.018;11.560;2023-07-28T09:34:07;21.00;80.60
13458;DHT22;6801;53.018;11.560;2023-07-28T09:36:35;21.10;80.40
13458;DHT22;6801;53.018;11.560;2023-07-28T09:39:05;21.10;80.30
13458;DHT22;6801;53.018;11.560;2023-07-28T09:41:35;21.20;80.10
13458;DHT22;6801;53.018;11.560;2023-07-28T09:44:04;21.30;79.90
13458;DHT22;6801;53.018;11.560;2023-07-28T09:46:34;21.40;79.80
13458;DHT22;6801;53.018;11.560;2023-07-28T09:49:04;21.40;79.40
13458;DHT22;6801;53.018;11.560;2023-07-28T09:51:34;21.50;79.30
13458;DHT22;6801;53.018;11.560;2023-07-28T09:54:03;21.50;79.20
13458;DHT22;6801;53.018;11.560;2023-07-28T09:56:32;21.60;79.40
13458;DHT22;6801;53.018;11.560;2023-07-28T09:59:02;21.60;79.50
13458;DHT22;6801;53.018;11.560;2023-07-28T10:01:30;21.70;79.60
13458;DHT22;6801;53.018;11.560;2023-07-28T10:03:58;21.80;79.60
13458;DHT22;6801;53.018;11.560;2023-07-28T10:06:25;21.80;79.50
13458;DHT22;6801;53.018;11.560;2023-07-28T10:08:53;21.90;79.20
13458;DHT22;6801;53.018;11.560;2023-07-28T10:11:21;22.00;78.70
13458;DHT22;6801;53.018;11.560;2023-07-28T10:13:51;22.00;78.60
13458;DHT22;6801;53.018;11.560;2023-07-28T10:16:29;22.00;78.40
13458;DHT22;6801;53.018;11.560;2023-07-28T10:18:58;22.20;77.70
13458;DHT22;6801;53.018;11.560;2023-07-28T10:21:28;22.20;77.10
13458;DHT22;6801;53.018;11.560;2023-07-28T10:23:55;22.30;76.90
13458;DHT22;6801;53.018;11.560;2023-07-28T10:26:35;22.30;76.80
13458;DHT22;6801;53.018;11.560;2023-07-28T10:29:11;22.30;76.60
13458;DHT22;6801;53.018;11.560;2023-07-28T10:31:49;22.40;76.80
13458;DHT22;6801;53.018;11.560;2023-07-28T10:34:17;22.50;76.70
13458;DHT22;6801;53.018;11.560;2023-07-28T10:36:44;22.50;76.70
13458;DHT22;6801;53.018;11.560;2023-07-28T10:39:13;22.50;76.20
13458;DHT22;6801;53.018;11.560;2023-07-28T10:42:01;22.50;76.30
13458;DHT22;6801;53.018;11.560;2023-07-28T10:44:30;22.60;76.50
13458;DHT22;6801;53.018;11.560;2023-07-28T10:46:57;22.60;76.60
13458;DHT22;6801;53.018;11.560;2023-07-28T10:49:25;22.60;76.80
13458;DHT22;6801;53.018;11.560;2023-07-28T10:51:52;22.70;76.60
13458;DHT22;6801;53.018;11.560;2023-07-28T10:54:19;22.70;76.40
13458;DHT22;6801;53.018;11.560;2023-07-28T10:56:47;22.70;76.20
13458;DHT22;6801;53.018;11.560;2023-07-28T10:59:15;22.70;75.80
13458;DHT22;6801;53.018;11.560;2023-07-28T11:01:43;22.70;75.60
13458;DHT22;6801;53.018;11.560;2023-07-28T11:04:13;22.70;75.30
13458;DHT22;6801;53.018;11.560;2023-07-28T11:06:42;22.60;75.30
13458;DHT22;6801;53.018;11.560;2023-07-28T11:09:09;22.60;75.10
13458;DHT22;6801;53.018;11.560;2023-07-28T11:11:37;22.60;75.10
13458;DHT22;6801;53.018;11.560;2023-07-28T11:14:05;22.50;75.20
13458;DHT22;6801;53.018;11.560;2023-07-28T11:16:34;22.50;75.00
13458;DHT22;6801;53.018;11.560;2023-07-28T11:19:06;22.50;75.20
13458;DHT22;6801;53.018;11.560;2023-07-28T11:21:36;22.50;75.40
13458;DHT22;6801;53.018;11.560;2023-07-28T11:24:03;22.50;75.60
13458;DHT22;6801;53.018;11.560;2023-07-28T11:26:30;22.50;75.80
13458;DHT22;6801;53.018;11.560;2023-07-28T11:28:59;22.50;75.90
13458;DHT22;6801;53.018;11.560;2023-07-28T11:31:26;22.50;76.00
13458;DHT22;6801;53.018;11.560;2023-07-28T11:33:53;22.40;76.10
13458;DHT22;6801;53.018;11.560;2023-07-28T11:36:26;22.50;76.30
13458;DHT22;6801;53.018;11.560;2023-07-28T11:38:54;22.40;76.30
13458;DHT22;6801;53.018;11.560;2023-07-28T11:41:22;22.50;76.20
13458;DHT22;6801;53.018;11.560;2023-07-28T11:43:50;22.50;76.30
13458;DHT22;6801;53.018;11.560;2023-07-28T11:46:33;22.50;76.40
13458;DHT22;6801;53.018;11.560;2023-07-28T11:49:10;22.50;76.50
13458;DHT22;6801;53.018;11.560;2023-07-28T11:51:40;22.50;76.50
13458;DHT22;6801;53.018;11.560;2023-07-28T11:54:11;22.50;76.40
13458;DHT22;6801;53.018;11.560;2023-07-28T11:56:40;22.50;76.20
13458;DHT22;6801;53.018;11.560;2023-07-28T11:59:07;22.50;76.10
13458;DHT22;6801;53.018;11.560;2023-07-28T12:01:34;22.50;76.00
13458;DHT22;6801;53.018;11.560;2023-07-28T12:04:19;22.50;76.00
13458;DHT22;6801;53.018;11.560;2023-07-28T12:07:04;22.60;76.20
13458;DHT22;6801;53.018;11.560;2023-07-28T12:09:32;22.70;76.40
13458;DHT22;6801;53.018;11.560;2023-07-28T12:11:59;22.70;76.40
13458;DHT22;6801;53.018;11.560;2023-07-28T12:14:35;22.70;76.20
13458;DHT22;6801;53.018;11.560;2023-07-28T12:17:11;22.70;76.30
13458;DHT22;6801;53.018;11.560;2023-07-28T12:19:41;22.80;76.40
13458;DHT22;6801;53.018;11.560;2023-07-28T12:22:10;22.80;76.50
13458;DHT22;6801;53.018;11.560;2023-07-28T12:24:37;22.80;76.30
13458;DHT22;6801;53.018;11.560;2023-07-28T12:27:05;22.90;76.10
13458;DHT22;6801;53.018;11.560;2023-07-28T12:29:36;22.90;76.00
13458;DHT22;6801;53.018;11.560;2023-07-28T12:32:04;23.00;75.80
13458;DHT22;6801;53.018;11.560;2023-07-28T12:34:32;23.00;75.60
13458;DHT22;6801;53.018;11.560;2023-07-28T12:37:00;23.00;75.60
13458;DHT22;6801;53.018;11.560;2023-07-28T12:39:28;23.00;75.50
13458;DHT22;6801;53.018;11.560;2023-07-28T12:41:56;23.10;75.10
13458;DHT22;6801;53.018;11.560;2023-07-28T12:44:22;23.20;74.90
13458;DHT22;6801;53.018;11.560;2023-07-28T12:46:50;23.20;75.00
13458;DHT22;6801;53.018;11.560;2023-07-28T12:49:17;23.20;75.10
13458;DHT22;6801;53.018;11.560;2023-07-28T12:51:45;23.30;74.70
13458;DHT22;6801;53.018;11.560;2023-07-28T12:54:12;23.30;74.40
13458;DHT22;6801;53.018;11.560;2023-07-28T12:56:40;23.40;74.50
13458;DHT22;6801;53.018;11.560;2023-07-28T12:59:07;23.40;74.70
13458;DHT22;6801;53.018;11.560;2023-07-28T13:01:37;23.40;74.80
13458;DHT22;6801;53.018;11.560;2023-07-28T13:04:04;23.40;74.80
13458;DHT22;6801;53.018;11.560;2023-07-28T13:06:31;23.40;74.70
13458;DHT22;6801;53.018;11.560;2023-07-28T13:08:58;23.50;74.60
13458;DHT22;6801;53.018;11.560;2023-07-28T13:11:25;23.50;74.50
13458;DHT22;6801;53.018;11.560;2023-07-28T13:13:53;23.50;74.20
13458;DHT22;6801;53.018;11.560;2023-07-28T13:16:21;23.50;74.60
13458;DHT22;6801;53.018;11.560;2023-07-28T13:18:48;23.50;74.70
13458;DHT22;6801;53.018;11.560;2023-07-28T13:21:15;23.60;74.70
13458;DHT22;6801;53.018;11.560;2023-07-28T13:23:42;23.50;74.80
13458;DHT22;6801;53.018;11.560;2023-07-28T13:26:09;23.60;74.70
13458;DHT22;6801;53.018;11.560;2023-07-28T13:28:36;23.50;74.40
13458;DHT22;6801;53.018;11.560;2023-07-28T13:31:04;23.50;74.10
13458;DHT22;6801;53.018;11.560;2023-07-28T13:33:31;23.60;73.90
13458;DHT22;6801;53.018;11.560;2023-07-28T13:35:58;23.50;74.00
13458;DHT22;6801;53.018;11.560;2023-07-28T13:38:25;23.50;73.90
13458;DHT22;6801;53.018;11.560;2023-07-28T13:40:52;23.50;73.80
13458;DHT22;6801;53.018;11.560;2023-07-28T13:43:19;23.50;73.80
13458;DHT22;6801;53.018;11.560;2023-07-28T13:45:46;23.40;74.00
13458;DHT22;6801;53.018;11.560;2023-07-28T13:48:15;23.40;73.60
13458;DHT22;6801;53.018;11.560;2023-07-28T13:50:42;23.30;73.50
13458;DHT22;6801;53.018;11.560;2023-07-28T13:53:10;23.30;73.70
13458;DHT22;6801;53.018;11.560;2023-07-28T13:55:37;23.20;73.70
13458;DHT22;6801;53.018;11.560;2023-07-28T13:58:04;23.20;73.80
13458;DHT22;6801;53.018;11.560;2023-07-28T14:00:32;23.20;74.00
13458;DHT22;6801;53.018;11.560;2023-07-28T14:02:59;23.20;74.10
13458;DHT22;6801;53.018;11.560;2023-07-28T14:05:27;23.10;74.20
13458;DHT22;6801;53.018;11.560;2023-07-28T14:07:54;23.00;74.20
13458;DHT22;6801;53.018;11.560;2023-07-28T14:10:21;23.00;74.10
13458;DHT22;6801;53.018;11.560;2023-07-28T14:12:49;23.00;74.30
13458;DHT22;6801;53.018;11.560;2023-07-28T14:15:16;23.00;74.20
13458;DHT22;6801;53.018;11.560;2023-07-28T14:17:43;22.90;74.20
13458;DHT22;6801;53.018;11.560;2023-07-28T14:20:11;22.90;74.50
13458;DHT22;6801;53.018;11.560;2023-07-28T14:22:39;22.90;74.60
13458;DHT22;6801;53.018;11.560;2023-07-28T14:25:07;22.90;74.80
13458;DHT22;6801;53.018;11.560;2023-07-28T14:27:34;22.80;74.90
13458;DHT22;6801;53.018;11.560;2023-07-28T14:30:01;22.80;75.10
13458;DHT22;6801;53.018;11.560;2023-07-28T14:32:28;22.80;75.10
13458;DHT22;6801;53.018;11.560;2023-07-28T14:34:55;22.80;75.30
13458;DHT22;6801;53.018;11.560;2023-07-28T14:37:22;22.80;75.00
13458;DHT22;6801;53.018;11.560;2023-07-28T14:39:50;22.80;74.90
13458;DHT22;6801;53.018;11.560;2023-07-28T14:42:18;22.80;74.70
13458;DHT22;6801;53.018;11.560;2023-07-28T14:44:45;22.90;74.70
13458;DHT22;6801;53.018;11.560;2023-07-28T14:47:12;22.90;74.60
13458;DHT22;6801;53.018;11.560;2023-07-28T14:49:39;22.90;74.70
13458;DHT22;6801;53.018;11.560;2023-07-28T14:52:07;22.90;74.80
13458;DHT22;6801;53.018;11.560;2023-07-28T14:54:34;22.90;74.80
13458;DHT22;6801;53.018;11.560;2023-07-28T14:57:02;23.00;74.90
13458;DHT22;6801;53.018;11.560;2023-07-28T14:59:29;23.00;75.10
13458;DHT22;6801;53.018;11.560;2023-07-28T15:01:56;23.00;74.90
13458;DHT22;6801;53.018;11.560;2023-07-28T15:04:23;23.00;74.90
13458;DHT22;6801;53.018;11.560;2023-07-28T15:06:50;23.10;74.40
13458;DHT22;6801;53.018;11.560;2023-07-28T15:09:17;23.10;74.60
13458;DHT22;6801;53.018;11.560;2023-07-28T15:11:48;23.10;74.70
13458;DHT22;6801;53.018;11.560;2023-07-28T15:14:16;23.10;74.60
13458;DHT22;6801;53.018;11.560;2023-07-28T15:16:43;23.10;74.30
13458;DHT22;6801;53.018;11.560;2023-07-28T15:19:10;23.20;74.30
13458;DHT22;6801;53.018;11.560;2023-07-28T15:21:38;23.20;74.30
13458;DHT22;6801;53.018;11.560;2023-07-28T15:24:05;23.20;74.20
13458;DHT22;6801;53.018;11.560;2023-07-28T15:26:32;23.20;74.10
13458;DHT22;6801;53.018;11.560;2023-07-28T15:29:01;23.30;73.90
13458;DHT22;6801;53.018;11.560;2023-07-28T15:31:30;23.30;73.90
13458;DHT22;6801;53.018;11.560;2023-07-28T15:33:57;23.40;73.90
13458;DHT22;6801;53.018;11.560;2023-07-28T15:36:24;23.40;73.80
13458;DHT22;6801;53.018;11.560;2023-07-28T15:38:51;23.50;74.10